Time;durP1;ratioP1;P1;durP2;ratioP2;P2;SDS_P1;SDS_P2;PMS_P1;PMS_P2;Temp;Humidity;BMP_temperature;BMP_pressure;BME280_temperature;BME280_humidity;BME280_pressure;Samples;Min_cycle;Max_cycle;Signal;HPM_P1;HPM_P2
2022/03/14 00:01:37;;;;;;;10.05;8.20;;;;;;;;;;5002958;28;20075;-90
2022/03/14 00:04:09;;;;;;;8.90;7.53;;;;;;;;;;5002473;28;20037;-90
2022/03/14 00:06:55;;;;;;;9.13;8.02;;;;;;;;;;5003323;28;20281;-91
2022/03/14 00:09:21;;;;;;;9.52;7.05;;;;;;;;;;5002499;28;20083;-90
2022/03/14 00:12:01;;;;;;;8.13;7.32;;;;;;;;;;5002685;28;20045;-90
2022/03/14 00:15:03;;;;;;;;;;;;;;;;;;;;;
2022/03/14 00:17:32;;;;;;;6.63;5.93;;;;;;;;;;5018913;28;20087;-91
2022/03/14 00:23:03;;;;;;;7.13;5.90;;;;;;;;;;5003802;28;20109;-90
2022/03/14 00:25:41;;;;;;;6.68;5.72;;;;;;;;;;5019163;28;20037;-90
2022/03/14 00:28:13;;;;;;;8.48;6.15;;;;;;;;;;5004013;28;20041;-89
2022/03/14 00:30:53;;;;;;;8.52;5.50;;;;;;;;;;5003563;28;20037;-90
2022/03/14 00:33:22;;;;;;;8.40;5.88;;;;;;;;;;5024032;28;20045;-91
2022/03/14 00:36:02;;;;;;;6.70;5.53;;;;;;;;;;5020595;28;20067;-89
2022/03/14 00:38:32;;;;;;;5.97;5.18;;;;;;;;;;5018571;28;20041;-90
2022/03/14 00:41:16;;;;;;;6.30;5.10;;;;;;;;;;5030577;28;20049;-89
2022/03/14 00:43:45;;;;;;;6.50;5.20;;;;;;;;;;5014789;28;20048;-88
2022/03/14 00:46:37;;;;;;;8.38;5.25;;;;;;;;;;5013655;28;20075;-89
2022/03/14 00:49:11;;;;;;;5.45;4.95;;;;;;;;;;5021823;28;20045;-91
2022/03/14 00:52:06;;;;;;;6.28;4.90;;;;;;;;;;5002650;28;20041;-89
2022/03/14 00:54:44;;;;;;;6.90;4.90;;;;;;;;;;5002727;28;20052;-91
2022/03/14 00:57:18;;;;;;;5.90;4.93;;;;;;;;;;5018089;28;20089;-90
2022/03/14 00:59:57;;;;;;;5.55;4.85;;;;;;;;;;5002681;28;20053;-91
2022/03/14 01:02:41;;;;;;;5.75;4.40;;;;;;;;;;5000731;28;20050;-91
2022/03/14 01:05:13;;;;;;;5.80;4.90;;;;;;;;;;5001838;28;20107;-90
2022/03/14 01:07:51;;;;;;;6.22;5.10;;;;;;;;;;5017922;28;20052;-92
2022/03/14 01:10:21;;;;;;;4.90;4.50;;;;;;;;;;5000714;28;20064;-91
2022/03/14 01:12:51;;;;;;;5.18;4.43;;;;;;;;;;5001031;28;20133;-91
2022/03/14 01:15:21;;;;;;;4.65;4.25;;;;;;;;;;5017659;28;20503;-91
2022/03/14 01:17:47;;;;;;;4.15;3.55;;;;;;;;;;5017330;28;20046;-89
2022/03/14 01:20:31;;;;;;;;;;;;;;;;;;;;;
2022/03/14 01:22:59;;;;;;;4.97;4.30;;;;;;;;;;5016957;28;20084;-90
2022/03/14 01:25:34;;;;;;;4.53;4.13;;;;;;;;;;5001817;28;20089;-90
2022/03/14 01:28:06;;;;;;;5.53;4.60;;;;;;;;;;5000348;28;20045;-91
2022/03/14 01:30:50;;;;;;;5.00;4.20;;;;;;;;;;5000930;28;20095;-91
2022/03/14 01:33:27;;;;;;;4.30;3.90;;;;;;;;;;5020610;28;20041;-89
2022/03/14 01:36:01;;;;;;;4.38;3.97;;;;;;;;;;5021372;28;20071;-87
2022/03/14 01:38:42;;;;;;;4.32;3.90;;;;;;;;;;5023552;28;20053;-88
2022/03/14 01:41:22;;;;;;;4.15;3.75;;;;;;;;;;5025339;28;20053;-91
2022/03/14 01:44:02;;;;;;;;;;;;;;;;;;;;;
2022/03/14 01:46:53;;;;;;;3.90;3.50;;;;;;;;;;5033905;28;20384;-90
2022/03/14 01:49:19;;;;;;;3.85;3.55;;;;;;;;;;5037138;28;20129;-91
2022/03/14 01:51:48;;;;;;;4.35;3.95;;;;;;;;;;5019721;28;20049;-91
2022/03/14 01:54:20;;;;;;;4.38;3.97;;;;;;;;;;5020648;28;20080;-91
2022/03/14 01:57:09;;;;;;;5.30;4.07;;;;;;;;;;5036091;28;20053;-88
2022/03/14 01:59:52;;;;;;;4.75;4.20;;;;;;;;;;5021240;28;20040;-91
2022/03/14 02:02:29;;;;;;;4.20;3.70;;;;;;;;;;5019915;28;20053;-91
2022/03/14 02:05:13;;;;;;;4.20;3.65;;;;;;;;;;5020230;28;20041;-90
2022/03/14 02:07:41;;;;;;;4.28;3.85;;;;;;;;;;5020321;28;20106;-90
2022/03/14 02:10:23;;;;;;;;;;;;;;;;;;;;;
2022/03/14 02:12:58;;;;;;;4.03;3.47;;;;;;;;;;5036032;28;20041;-89
2022/03/14 02:15:40;;;;;;;3.97;3.58;;;;;;;;;;5037838;28;20128;-89
2022/03/14 02:18:24;;;;;;;;;;;;;;;;;;;;;
2022/03/14 02:21:13;;;;;;;4.18;3.47;;;;;;;;;;5035229;28;20576;-90
2022/03/14 02:23:57;;;;;;;3.75;3.45;;;;;;;;;;5019271;28;20124;-90
2022/03/14 02:26:28;;;;;;;4.07;3.50;;;;;;;;;;5026933;28;20043;-88
2022/03/14 02:29:02;;;;;;;4.82;3.70;;;;;;;;;;5040836;28;20140;-89
2022/03/14 02:31:47;;;;;;;3.83;3.30;;;;;;;;;;5077118;28;20043;-87
2022/03/14 02:34:16;;;;;;;3.97;3.45;;;;;;;;;;5050825;28;20081;-90
2022/03/14 02:36:45;;;;;;;3.70;3.40;;;;;;;;;;5021623;28;20132;-90
2022/03/14 02:39:31;;;;;;;3.55;3.25;;;;;;;;;;5020416;28;20045;-88
2022/03/14 02:42:13;;;;;;;3.63;3.28;;;;;;;;;;5037375;28;20041;-91
2022/03/14 02:44:45;;;;;;;3.97;3.45;;;;;;;;;;5036099;28;20407;-89
2022/03/14 02:47:41;;;;;;;3.67;3.30;;;;;;;;;;5038232;28;20366;-91
2022/03/14 02:50:36;;;;;;;4.22;3.35;;;;;;;;;;5020013;28;20430;-91
2022/03/14 02:53:18;;;;;;;3.85;3.42;;;;;;;;;;5035896;28;20045;-89
2022/03/14 02:55:55;;;;;;;3.67;3.38;;;;;;;;;;5018949;28;20055;-90
2022/03/14 02:58:39;;;;;;;4.03;3.65;;;;;;;;;;5037401;28;20041;-90
2022/03/14 03:01:16;;;;;;;3.75;3.45;;;;;;;;;;5035584;28;20396;-91
2022/03/14 03:04:16;;;;;;;3.70;3.40;;;;;;;;;;5019369;28;20084;-90
2022/03/14 03:06:57;;;;;;;3.80;3.50;;;;;;;;;;5020817;28;20085;-90
2022/03/14 03:09:33;;;;;;;3.70;3.38;;;;;;;;;;5037975;28;20040;-89
2022/03/14 03:12:20;;;;;;;3.55;3.25;;;;;;;;;;5041136;28;20053;-89
2022/03/14 03:14:52;;;;;;;4.22;3.00;;;;;;;;;;5041789;28;20029;-91
2022/03/14 03:17:31;;;;;;;3.58;3.28;;;;;;;;;;5027749;28;20052;-89
2022/03/14 03:20:14;;;;;;;;;;;;;;;;;;;;;
2022/03/14 03:22:46;;;;;;;3.55;3.22;;;;;;;;;;5054804;28;20049;-90
2022/03/14 03:25:15;;;;;;;4.10;3.08;;;;;;;;;;5049108;28;20044;-89
2022/03/14 03:28:06;;;;;;;3.55;3.25;;;;;;;;;;5028531;28;20036;-90
2022/03/14 03:30:35;;;;;;;3.50;3.20;;;;;;;;;;5020361;28;20044;-89
2022/03/14 03:33:11;;;;;;;;;;;;;;;;;;;;;
2022/03/14 03:35:40;;;;;;;3.63;3.08;;;;;;;;;;5035530;28;20056;-91
2022/03/14 03:38:10;;;;;;;3.95;3.58;;;;;;;;;;5035044;28;20541;-88
2022/03/14 03:40:36;;;;;;;3.45;3.13;;;;;;;;;;5017989;28;20053;-91
2022/03/14 03:43:04;;;;;;;3.38;3.08;;;;;;;;;;5034963;28;20037;-91
2022/03/14 03:45:30;;;;;;;3.20;2.90;;;;;;;;;;5035020;28;20045;-91
2022/03/14 03:47:57;;;;;;;3.80;3.00;;;;;;;;;;5035450;28;20069;-90
2022/03/14 03:50:23;;;;;;;3.50;3.20;;;;;;;;;;5018630;28;20603;-89
2022/03/14 03:52:49;;;;;;;3.22;2.92;;;;;;;;;;5018257;28;20447;-87
2022/03/14 03:55:20;;;;;;;3.30;3.00;;;;;;;;;;5034833;28;20342;-89
2022/03/14 03:57:52;;;;;;;3.63;3.33;;;;;;;;;;5018681;28;20511;-89
2022/03/14 04:00:24;;;;;;;3.33;3.03;;;;;;;;;;5034587;28;20056;-90
2022/03/14 04:02:50;;;;;;;3.08;2.72;;;;;;;;;;5017021;28;20099;-90
2022/03/14 04:05:25;;;;;;;3.50;3.20;;;;;;;;;;5034909;28;20051;-87
2022/03/14 04:07:58;;;;;;;4.82;3.03;;;;;;;;;;5018426;28;20029;-89
2022/03/14 04:10:30;;;;;;;3.97;3.33;;;;;;;;;;5018424;28;20129;-91
2022/03/14 04:13:02;;;;;;;3.30;2.97;;;;;;;;;;5017125;28;20087;-90
2022/03/14 04:15:38;;;;;;;3.88;3.58;;;;;;;;;;5018654;28;20048;-90
2022/03/14 04:18:07;;;;;;;5.20;3.50;;;;;;;;;;5018542;28;20175;-91
2022/03/14 04:20:37;;;;;;;7.20;3.65;;;;;;;;;;5018486;28;20505;-91
2022/03/14 04:23:44;;;;;;;;;;;;;;;;;;;;;
2022/03/14 04:26:20;;;;;;;4.03;3.67;;;;;;;;;;5037902;28;20048;-90
2022/03/14 04:28:53;;;;;;;3.60;3.30;;;;;;;;;;5022410;28;20107;-90
2022/03/14 04:31:22;;;;;;;3.80;3.35;;;;;;;;;;5021470;28;20557;-91
2022/03/14 04:34:01;;;;;;;4.97;3.70;;;;;;;;;;5021593;28;20045;-90
2022/03/14 04:36:33;;;;;;;3.95;3.35;;;;;;;;;;5021540;28;20049;-91
2022/03/14 04:39:07;;;;;;;4.13;3.72;;;;;;;;;;5038312;28;20570;-92
2022/03/14 04:41:54;;;;;;;3.83;3.42;;;;;;;;;;5021564;28;20450;-90
2022/03/14 04:44:43;;;;;;;4.50;4.05;;;;;;;;;;5022918;28;20120;-91
2022/03/14 04:47:21;;;;;;;4.05;3.60;;;;;;;;;;5021625;28;20104;-91
2022/03/14 04:49:52;;;;;;;4.13;3.83;;;;;;;;;;5021711;28;20119;-90
2022/03/14 04:52:24;;;;;;;4.03;3.58;;;;;;;;;;5035529;28;20071;-90
2022/03/14 04:54:53;;;;;;;3.72;3.42;;;;;;;;;;5037481;28;20365;-90
2022/03/14 04:57:32;;;;;;;4.55;4.00;;;;;;;;;;5037023;28;20088;-90
2022/03/14 05:02:53;;;;;;;4.68;3.92;;;;;;;;;;5035801;28;20557;-89
2022/03/14 05:05:19;;;;;;;4.80;4.30;;;;;;;;;;5021530;28;20491;-88
2022/03/14 05:07:53;;;;;;;3.72;3.35;;;;;;;;;;5055283;28;20044;-87
2022/03/14 05:10:51;;;;;;;4.32;3.92;;;;;;;;;;5045099;28;20044;-90
2022/03/14 05:16:26;;;;;;;4.22;3.85;;;;;;;;;;5026697;28;20279;-91
2022/03/14 05:19:18;;;;;;;4.75;4.28;;;;;;;;;;5021214;28;20039;-91
2022/03/14 05:21:59;;;;;;;4.43;4.03;;;;;;;;;;5020197;28;20499;-89
2022/03/14 05:24:44;;;;;;;;;;;;;;;;;;;;;
2022/03/14 05:27:21;;;;;;;4.30;3.90;;;;;;;;;;5036249;28;20008;-90
2022/03/14 05:29:55;;;;;;;4.85;4.32;;;;;;;;;;5021283;28;20049;-91
2022/03/14 05:32:27;;;;;;;4.97;3.90;;;;;;;;;;5020511;28;20037;-90
2022/03/14 05:39:09;;;;;;;;;;;;;;;;;;;;;
2022/03/14 05:41:55;;;;;;;5.63;4.55;;;;;;;;;;4877931;29;20077;-90
2022/03/14 05:48:20;;;;;;;4.53;4.07;;;;;;;;;;4854034;29;20513;-91
2022/03/14 05:51:05;;;;;;;5.10;4.60;;;;;;;;;;4951492;23;20587;-61
2022/03/14 05:53:32;;;;;;;5.15;4.57;;;;;;;;;;5052364;28;20486;-61
2022/03/14 05:55:58;;;;;;;4.78;4.38;;;;;;;;;;5052747;28;20087;-61
2022/03/14 05:58:25;;;;;;;5.28;4.55;;;;;;;;;;5052298;28;20076;-61
2022/03/14 06:00:54;;;;;;;6.00;4.95;;;;;;;;;;5052187;28;20033;-61
2022/03/14 06:03:20;;;;;;;5.68;4.60;;;;;;;;;;5046106;28;20451;-64
2022/03/14 06:05:48;;;;;;;5.90;5.40;;;;;;;;;;5039289;28;20029;-63
2022/03/14 06:08:14;;;;;;;5.63;5.13;;;;;;;;;;5046831;28;20041;-63
2022/03/14 06:10:41;;;;;;;5.18;4.68;;;;;;;;;;5052384;28;20052;-62
2022/03/14 06:13:07;;;;;;;6.55;4.68;;;;;;;;;;5052210;28;20124;-64
2022/03/14 06:15:33;;;;;;;5.10;4.60;;;;;;;;;;5052115;28;20045;-64
2022/03/14 06:18:00;;;;;;;6.65;4.88;;;;;;;;;;5052430;28;20482;-64
2022/03/14 06:20:26;;;;;;;5.68;5.13;;;;;;;;;;5052179;28;20059;-64
2022/03/14 06:22:52;;;;;;;6.47;5.88;;;;;;;;;;5051491;28;20044;-64
2022/03/14 06:25:18;;;;;;;6.53;5.32;;;;;;;;;;5051843;28;20114;-63
2022/03/14 06:27:44;;;;;;;6.05;5.10;;;;;;;;;;5034377;28;20049;-64
2022/03/14 06:30:11;;;;;;;5.55;5.00;;;;;;;;;;5051759;28;20045;-63
2022/03/14 06:32:38;;;;;;;6.35;5.75;;;;;;;;;;5051891;28;20379;-64
2022/03/14 06:35:06;;;;;;;6.78;5.72;;;;;;;;;;5051767;28;20090;-66
2022/03/14 06:37:33;;;;;;;6.97;6.28;;;;;;;;;;5051880;28;20387;-63
2022/03/14 06:39:59;;;;;;;7.28;6.10;;;;;;;;;;5051772;28;20398;-63
2022/03/14 06:42:26;;;;;;;6.93;5.88;;;;;;;;;;5051374;28;20124;-63
2022/03/14 06:44:52;;;;;;;7.47;5.85;;;;;;;;;;5051628;28;20120;-62
2022/03/14 06:47:19;;;;;;;6.30;5.70;;;;;;;;;;5051606;28;20087;-63
2022/03/14 06:49:46;;;;;;;6.95;5.25;;;;;;;;;;5051501;28;20072;-62
2022/03/14 06:52:12;;;;;;;6.78;5.72;;;;;;;;;;5050908;28;20128;-63
2022/03/14 06:54:39;;;;;;;7.53;5.88;;;;;;;;;;5051980;28;20149;-63
2022/03/14 06:57:06;;;;;;;5.88;5.28;;;;;;;;;;5033725;28;20033;-63
2022/03/14 06:59:32;;;;;;;7.35;5.95;;;;;;;;;;5051061;28;20608;-63
2022/03/14 07:01:58;;;;;;;7.40;6.38;;;;;;;;;;5051559;28;20493;-63
2022/03/14 07:04:25;;;;;;;7.05;6.35;;;;;;;;;;5051580;28;20414;-62
2022/03/14 07:06:51;;;;;;;7.68;6.30;;;;;;;;;;5033483;28;20120;-63
2022/03/14 07:09:18;;;;;;;6.97;6.03;;;;;;;;;;5051199;28;20048;-62
2022/03/14 07:11:44;;;;;;;8.52;6.95;;;;;;;;;;5051459;28;20109;-63
2022/03/14 07:14:10;;;;;;;8.30;7.22;;;;;;;;;;5051681;28;20048;-63
2022/03/14 07:16:36;;;;;;;7.47;6.68;;;;;;;;;;5044978;28;20051;-63
2022/03/14 07:19:02;;;;;;;7.60;6.88;;;;;;;;;;5044596;28;20120;-63
2022/03/14 07:21:28;;;;;;;7.63;6.47;;;;;;;;;;5051059;28;20033;-63
2022/03/14 07:23:55;;;;;;;7.30;6.45;;;;;;;;;;5050896;28;20044;-63
2022/03/14 07:26:21;;;;;;;8.02;7.22;;;;;;;;;;5042899;28;20033;-63
2022/03/14 07:28:48;;;;;;;6.75;6.05;;;;;;;;;;5050392;28;20505;-63
2022/03/14 07:31:15;;;;;;;7.95;7.15;;;;;;;;;;5051736;28;20048;-63
2022/03/14 07:33:43;;;;;;;8.60;7.20;;;;;;;;;;5051684;28;20073;-63
2022/03/14 07:36:09;;;;;;;8.63;7.28;;;;;;;;;;5051523;28;20047;-63
2022/03/14 07:38:35;;;;;;;9.25;7.63;;;;;;;;;;5050673;28;20043;-63
2022/03/14 07:41:02;;;;;;;7.97;6.65;;;;;;;;;;5051926;28;20044;-63
2022/03/14 07:43:28;;;;;;;7.80;7.00;;;;;;;;;;5052372;28;20043;-63
2022/03/14 07:45:54;;;;;;;8.68;7.43;;;;;;;;;;5033428;28;20080;-63
2022/03/14 07:48:20;;;;;;;8.57;7.05;;;;;;;;;;5051538;28;20111;-64
2022/03/14 07:50:46;;;;;;;8.52;7.55;;;;;;;;;;5051881;28;20113;-63
2022/03/14 07:53:13;;;;;;;8.18;7.22;;;;;;;;;;5046208;28;20044;-63
2022/03/14 07:55:39;;;;;;;9.40;7.80;;;;;;;;;;5051833;28;20044;-60
2022/03/14 07:58:05;;;;;;;7.40;6.57;;;;;;;;;;5050356;28;20048;-61
2022/03/14 08:00:31;;;;;;;8.40;7.22;;;;;;;;;;5051957;28;20041;-62
2022/03/14 08:03:00;;;;;;;9.32;7.55;;;;;;;;;;5047345;28;20383;-65
2022/03/14 08:05:27;;;;;;;9.23;7.30;;;;;;;;;;5053312;28;20033;-63
2022/03/14 08:07:54;;;;;;;7.43;6.72;;;;;;;;;;5052978;28;20040;-63
2022/03/14 08:10:21;;;;;;;9.68;7.97;;;;;;;;;;5050425;28;20501;-63
2022/03/14 08:12:50;;;;;;;8.57;7.68;;;;;;;;;;5029861;28;20095;-63
2022/03/14 08:15:20;;;;;;;8.30;7.47;;;;;;;;;;5013162;28;20037;-63
2022/03/14 08:17:47;;;;;;;9.70;7.65;;;;;;;;;;5052172;28;20037;-63
2022/03/14 08:20:13;;;;;;;8.95;7.65;;;;;;;;;;5049415;28;20039;-64
2022/03/14 08:22:39;;;;;;;9.75;8.55;;;;;;;;;;5032534;28;20038;-64
2022/03/14 08:25:06;;;;;;;10.25;7.55;;;;;;;;;;5053077;28;20033;-64
2022/03/14 08:27:32;;;;;;;9.15;8.15;;;;;;;;;;5049429;28;20568;-63
2022/03/14 08:29:59;;;;;;;11.32;9.25;;;;;;;;;;5053105;28;20403;-61
2022/03/14 08:32:25;;;;;;;9.10;8.15;;;;;;;;;;5050072;28;20044;-62
2022/03/14 08:34:56;;;;;;;10.20;8.75;;;;;;;;;;5053871;28;20506;-65
2022/03/14 08:37:24;;;;;;;12.98;10.48;;;;;;;;;;5055449;28;20072;-62
2022/03/14 08:39:50;;;;;;;10.25;8.90;;;;;;;;;;5052640;28;20037;-60
2022/03/14 08:42:16;;;;;;;9.52;8.52;;;;;;;;;;5054690;28;20037;-64
2022/03/14 08:44:42;;;;;;;10.07;8.95;;;;;;;;;;5000991;28;20037;-63
2022/03/14 08:47:09;;;;;;;10.73;9.65;;;;;;;;;;5035038;28;20083;-63
2022/03/14 08:49:35;;;;;;;9.55;8.65;;;;;;;;;;5052009;28;20441;-63
2022/03/14 08:52:01;;;;;;;16.10;13.30;;;;;;;;;;5055244;28;20072;-63
2022/03/14 08:54:28;;;;;;;17.77;13.02;;;;;;;;;;5071609;28;20098;-62
2022/03/14 08:56:54;;;;;;;13.02;10.90;;;;;;;;;;5037639;28;20120;-62
2022/03/14 08:59:20;;;;;;;18.38;14.45;;;;;;;;;;5032868;28;20037;-62
2022/03/14 09:01:46;;;;;;;19.63;14.13;;;;;;;;;;5032887;28;20073;-62
2022/03/14 09:04:12;;;;;;;23.80;15.77;;;;;;;;;;5033365;28;20429;-61
2022/03/14 09:06:38;;;;;;;20.35;14.65;;;;;;;;;;5033155;28;20073;-62
2022/03/14 09:09:05;;;;;;;18.80;14.45;;;;;;;;;;5033840;28;20037;-61
2022/03/14 09:11:31;;;;;;;27.85;18.88;;;;;;;;;;5015564;28;20379;-62
2022/03/14 09:13:57;;;;;;;18.25;14.40;;;;;;;;;;5050324;28;20520;-61
2022/03/14 09:16:23;;;;;;;34.70;21.33;;;;;;;;;;5053882;28;20044;-62
2022/03/14 09:18:50;;;;;;;27.30;19.50;;;;;;;;;;5054188;28;20045;-62
2022/03/14 09:21:16;;;;;;;20.08;16.60;;;;;;;;;;5052871;28;20083;-62
2022/03/14 09:23:42;;;;;;;25.65;18.65;;;;;;;;;;5052935;28;20183;-62
2022/03/14 09:26:09;;;;;;;24.58;17.80;;;;;;;;;;5053232;28;20037;-62
2022/03/14 09:28:36;;;;;;;24.45;17.15;;;;;;;;;;5052917;28;20052;-63
2022/03/14 09:31:02;;;;;;;17.77;13.55;;;;;;;;;;5035157;28;20045;-63
2022/03/14 09:33:28;;;;;;;20.00;14.88;;;;;;;;;;5052442;28;20124;-61
2022/03/14 09:35:54;;;;;;;17.67;13.27;;;;;;;;;;5052833;28;20051;-61
2022/03/14 09:38:21;;;;;;;18.17;12.63;;;;;;;;;;5052887;28;20506;-62
2022/03/14 09:40:50;;;;;;;14.45;12.10;;;;;;;;;;5052673;28;20044;-62
2022/03/14 09:43:17;;;;;;;11.55;8.93;;;;;;;;;;5052457;28;20502;-63
2022/03/14 09:45:47;;;;;;;12.15;8.95;;;;;;;;;;5052385;28;20052;-63
2022/03/14 09:48:15;;;;;;;11.63;8.38;;;;;;;;;;5067911;28;20246;-61
2022/03/14 09:50:47;;;;;;;18.38;11.98;;;;;;;;;;5052993;28;20103;-63
2022/03/14 09:53:15;;;;;;;17.42;11.15;;;;;;;;;;5052957;28;20036;-61
2022/03/14 09:55:46;;;;;;;16.67;12.30;;;;;;;;;;5053237;28;20036;-63
2022/03/14 09:58:13;;;;;;;15.70;11.77;;;;;;;;;;5053387;28;20045;-63
2022/03/14 10:00:40;;;;;;;23.38;15.82;;;;;;;;;;5052866;28;20132;-63
2022/03/14 10:03:06;;;;;;;21.83;15.60;;;;;;;;;;5052642;28;20393;-63
2022/03/14 10:05:33;;;;;;;18.02;13.52;;;;;;;;;;5052336;28;20037;-61
2022/03/14 10:08:00;;;;;;;19.10;13.85;;;;;;;;;;5052017;28;20041;-63
2022/03/14 10:10:26;;;;;;;20.42;14.90;;;;;;;;;;5049693;28;20041;-62
2022/03/14 10:12:52;;;;;;;18.15;14.07;;;;;;;;;;5048467;28;20045;-63
2022/03/14 10:15:19;;;;;;;22.05;14.45;;;;;;;;;;5050188;28;20047;-62
2022/03/14 10:17:45;;;;;;;17.98;12.93;;;;;;;;;;5052034;28;20036;-63
2022/03/14 10:20:11;;;;;;;22.42;14.70;;;;;;;;;;5052550;28;20103;-63
2022/03/14 10:22:39;;;;;;;19.80;13.70;;;;;;;;;;5052345;28;20040;-62
2022/03/14 10:25:09;;;;;;;19.15;12.95;;;;;;;;;;5052935;28;20037;-62
2022/03/14 10:27:39;;;;;;;17.25;11.68;;;;;;;;;;5053004;28;20033;-61
2022/03/14 10:30:06;;;;;;;14.63;11.13;;;;;;;;;;5052117;28;20044;-62
2022/03/14 10:32:36;;;;;;;16.00;10.82;;;;;;;;;;5050599;28;20115;-62
2022/03/14 10:35:05;;;;;;;18.23;11.20;;;;;;;;;;5060365;28;20068;-63
2022/03/14 10:37:31;;;;;;;17.23;11.20;;;;;;;;;;5051919;28;20501;-61
2022/03/14 10:39:59;;;;;;;15.77;10.50;;;;;;;;;;5038708;28;20040;-63
2022/03/14 10:42:26;;;;;;;15.05;9.82;;;;;;;;;;5041301;28;20037;-63
2022/03/14 10:44:53;;;;;;;15.73;10.07;;;;;;;;;;5046342;28;20102;-63
2022/03/14 10:47:19;;;;;;;14.02;8.90;;;;;;;;;;5051902;28;20112;-63
2022/03/14 10:49:45;;;;;;;14.82;8.63;;;;;;;;;;5051629;28;20040;-63
2022/03/14 10:52:13;;;;;;;16.75;8.27;;;;;;;;;;5050874;28;20067;-63
2022/03/14 10:54:41;;;;;;;15.88;9.63;;;;;;;;;;5051118;28;20509;-63
2022/03/14 10:57:09;;;;;;;15.10;8.02;;;;;;;;;;5051301;28;20045;-63
2022/03/14 10:59:36;;;;;;;16.50;7.85;;;;;;;;;;5051625;28;20048;-63
2022/03/14 11:02:05;;;;;;;11.30;6.95;;;;;;;;;;5051006;28;20045;-63
2022/03/14 11:04:41;;;;;;;11.80;7.32;;;;;;;;;;5051537;28;20072;-63
2022/03/14 11:07:08;;;;;;;13.45;6.72;;;;;;;;;;5045753;28;20045;-62
2022/03/14 11:09:41;;;;;;;10.82;6.50;;;;;;;;;;5049094;28;20065;-62
2022/03/14 11:12:08;;;;;;;14.85;6.28;;;;;;;;;;5049388;28;20037;-61
2022/03/14 11:14:34;;;;;;;12.48;7.22;;;;;;;;;;5049344;28;20033;-63
2022/03/14 11:19:52;;;;;;;10.55;6.63;;;;;;;;;;5039660;22;20072;-66
2022/03/14 11:22:20;;;;;;;9.25;4.95;;;;;;;;;;5016641;28;20084;-61
2022/03/14 11:24:46;;;;;;;10.40;5.78;;;;;;;;;;5006282;28;20037;-62
2022/03/14 11:27:35;;;;;;;14.27;7.50;;;;;;;;;;5015858;28;20049;-61
2022/03/14 11:30:08;;;;;;;12.18;5.88;;;;;;;;;;5034930;28;20038;-62
2022/03/14 11:32:41;;;;;;;13.18;6.03;;;;;;;;;;4995154;28;20048;-63
2022/03/14 11:35:08;;;;;;;8.10;4.25;;;;;;;;;;4977467;28;20037;-65
2022/03/14 11:37:34;;;;;;;10.75;5.28;;;;;;;;;;5030528;28;20173;-67
2022/03/14 11:40:03;;;;;;;12.27;5.18;;;;;;;;;;4998054;28;20038;-61
2022/03/14 11:42:30;;;;;;;11.50;5.03;;;;;;;;;;5004837;28;20486;-62
2022/03/14 11:44:58;;;;;;;12.55;4.80;;;;;;;;;;4993099;28;20557;-62
2022/03/14 11:47:26;;;;;;;8.60;5.13;;;;;;;;;;5021648;28;20398;-63
2022/03/14 11:49:52;;;;;;;11.32;5.55;;;;;;;;;;4982529;28;20045;-63
2022/03/14 11:52:44;;;;;;;8.65;5.07;;;;;;;;;;5006513;28;20063;-58
2022/03/14 11:55:28;;;;;;;9.85;4.55;;;;;;;;;;5019964;28;20034;-60
2022/03/14 11:57:56;;;;;;;10.32;5.35;;;;;;;;;;5023858;28;20116;-62
2022/03/14 12:00:25;;;;;;;9.43;5.20;;;;;;;;;;5008337;28;20036;-61
2022/03/14 12:02:52;;;;;;;10.40;5.38;;;;;;;;;;5005787;28;20075;-61
2022/03/14 12:05:31;;;;;;;10.93;7.00;;;;;;;;;;5003706;28;20038;-60
2022/03/14 12:07:58;;;;;;;11.10;6.68;;;;;;;;;;5043477;28;20120;-61
2022/03/14 12:10:28;;;;;;;11.85;7.65;;;;;;;;;;5045556;28;20065;-62
2022/03/14 12:12:58;;;;;;;15.88;8.27;;;;;;;;;;5003364;28;20037;-65
2022/03/14 12:15:45;;;;;;;11.95;8.77;;;;;;;;;;5011662;28;20128;-61
2022/03/14 12:18:23;;;;;;;12.93;9.18;;;;;;;;;;5022416;28;20045;-62
2022/03/14 12:20:54;;;;;;;14.00;10.80;;;;;;;;;;5026435;28;20050;-61
2022/03/14 12:23:26;;;;;;;12.27;10.98;;;;;;;;;;5002508;28;20053;-62
2022/03/14 12:25:55;;;;;;;15.43;11.13;;;;;;;;;;5002147;28;20120;-61
2022/03/14 12:28:31;;;;;;;13.48;11.40;;;;;;;;;;5002212;28;20108;-64
2022/03/14 12:30:59;;;;;;;15.23;11.02;;;;;;;;;;5001797;28;20438;-62
2022/03/14 12:33:32;;;;;;;15.20;11.50;;;;;;;;;;5000864;28;20041;-62
2022/03/14 12:36:18;;;;;;;16.30;12.32;;;;;;;;;;5031518;28;20096;-62
2022/03/14 12:39:05;;;;;;;16.40;13.02;;;;;;;;;;5032915;28;20052;-62
2022/03/14 12:41:31;;;;;;;16.98;12.60;;;;;;;;;;5049975;28;20486;-62
2022/03/14 12:44:16;;;;;;;17.40;12.85;;;;;;;;;;5043309;28;20091;-62
2022/03/14 12:46:43;;;;;;;13.48;11.82;;;;;;;;;;5030636;28;20045;-62
2022/03/14 12:49:09;;;;;;;17.40;11.98;;;;;;;;;;5035136;28;20040;-65
2022/03/14 12:51:39;;;;;;;16.77;12.32;;;;;;;;;;5034925;28;20120;-62
2022/03/14 12:54:05;;;;;;;15.13;12.75;;;;;;;;;;5000526;28;20084;-61
2022/03/14 12:56:37;;;;;;;16.33;12.85;;;;;;;;;;4993875;28;20037;-62
2022/03/14 12:59:07;;;;;;;17.25;12.88;;;;;;;;;;5034094;28;20041;-62
2022/03/14 13:01:34;;;;;;;19.58;12.82;;;;;;;;;;5037201;28;20041;-61
2022/03/14 13:04:01;;;;;;;15.15;13.55;;;;;;;;;;5034794;28;20487;-62
2022/03/14 13:06:29;;;;;;;16.77;13.52;;;;;;;;;;5033822;28;20037;-62
2022/03/14 13:08:55;;;;;;;16.15;12.15;;;;;;;;;;4986532;28;20042;-62
2022/03/14 13:11:22;;;;;;;16.27;11.98;;;;;;;;;;5035633;28;20470;-62
2022/03/14 13:13:48;;;;;;;16.27;11.65;;;;;;;;;;5034491;28;20037;-62
2022/03/14 13:16:18;;;;;;;18.98;12.52;;;;;;;;;;5037486;28;20117;-65
2022/03/14 13:18:49;;;;;;;16.45;10.55;;;;;;;;;;5022784;28;20034;-62
2022/03/14 13:21:26;;;;;;;16.08;9.75;;;;;;;;;;5036273;28;20073;-63
2022/03/14 13:23:57;;;;;;;13.38;10.10;;;;;;;;;;5014203;28;20130;-65
2022/03/14 13:26:24;;;;;;;15.43;10.82;;;;;;;;;;5025993;28;20453;-65
2022/03/14 13:28:52;;;;;;;15.10;10.00;;;;;;;;;;5040515;28;20490;-67
2022/03/14 13:31:29;;;;;;;16.75;9.77;;;;;;;;;;5040844;28;20048;-65
2022/03/14 13:33:57;;;;;;;12.90;9.90;;;;;;;;;;5019053;28;20045;-66
2022/03/14 13:36:23;;;;;;;14.95;10.65;;;;;;;;;;5034252;28;20052;-66
2022/03/14 13:38:52;;;;;;;14.05;9.27;;;;;;;;;;5033243;28;20049;-66
2022/03/14 13:41:22;;;;;;;12.57;8.57;;;;;;;;;;5032151;28;20402;-66
2022/03/14 13:43:51;;;;;;;14.80;8.38;;;;;;;;;;5038434;28;20085;-66
2022/03/14 13:46:24;;;;;;;11.77;7.93;;;;;;;;;;5036080;28;20032;-66
2022/03/14 13:48:55;;;;;;;13.32;7.50;;;;;;;;;;5027995;28;20167;-64
2022/03/14 13:51:22;;;;;;;10.73;7.75;;;;;;;;;;5019389;28;20038;-64
2022/03/14 13:53:48;;;;;;;11.93;6.53;;;;;;;;;;5011313;28;20046;-62
2022/03/14 13:56:16;;;;;;;13.27;7.15;;;;;;;;;;5011649;28;20046;-66
2022/03/14 13:58:52;;;;;;;10.57;7.05;;;;;;;;;;5038015;28;20068;-66
2022/03/14 14:01:18;;;;;;;12.20;6.45;;;;;;;;;;5021015;28;20624;-66
2022/03/14 14:03:46;;;;;;;13.73;6.97;;;;;;;;;;5038370;28;20041;-65
2022/03/14 14:06:16;;;;;;;13.23;6.93;;;;;;;;;;5040826;28;20036;-65
2022/03/14 14:08:42;;;;;;;10.32;6.10;;;;;;;;;;5031518;28;20044;-65
2022/03/14 14:11:10;;;;;;;12.07;6.20;;;;;;;;;;5034399;28;20076;-66
2022/03/14 14:13:49;;;;;;;10.88;6.78;;;;;;;;;;5050221;28;20371;-65
2022/03/14 14:16:16;;;;;;;11.82;8.07;;;;;;;;;;5013071;28;20495;-65
2022/03/14 14:18:42;;;;;;;16.23;8.65;;;;;;;;;;5039306;28;20184;-65
2022/03/14 14:21:17;;;;;;;14.57;8.32;;;;;;;;;;5032272;28;20052;-66
2022/03/14 14:23:43;;;;;;;14.25;8.90;;;;;;;;;;5016379;28;20049;-65
2022/03/14 14:26:09;;;;;;;13.88;8.20;;;;;;;;;;5000282;28;20029;-66
2022/03/14 14:28:36;;;;;;;10.50;7.68;;;;;;;;;;4998409;28;20061;-66
2022/03/14 14:31:02;;;;;;;10.93;7.63;;;;;;;;;;5020573;28;20101;-66
2022/03/14 14:33:33;;;;;;;12.15;7.85;;;;;;;;;;4994464;28;20064;-64
2022/03/14 14:36:01;;;;;;;11.07;7.53;;;;;;;;;;5037793;28;20081;-63
2022/03/14 14:38:31;;;;;;;13.07;8.43;;;;;;;;;;5042304;28;20509;-64
2022/03/14 14:41:00;;;;;;;10.00;6.72;;;;;;;;;;5032219;28;20041;-64
2022/03/14 14:43:27;;;;;;;8.57;6.85;;;;;;;;;;4986400;28;20030;-65
2022/03/14 14:45:54;;;;;;;10.13;6.63;;;;;;;;;;5040787;28;20034;-63
2022/03/14 14:48:20;;;;;;;11.65;6.82;;;;;;;;;;5034541;28;20045;-66
2022/03/14 14:50:47;;;;;;;9.73;6.60;;;;;;;;;;5013189;28;20045;-65
2022/03/14 14:53:18;;;;;;;9.20;6.38;;;;;;;;;;5040691;28;20048;-65
2022/03/14 14:55:45;;;;;;;11.38;6.53;;;;;;;;;;5036857;28;20056;-66
2022/03/14 14:58:12;;;;;;;11.85;6.70;;;;;;;;;;5022610;28;20044;-65
2022/03/14 15:00:40;;;;;;;9.90;5.68;;;;;;;;;;5029718;28;20037;-66
2022/03/14 15:03:07;;;;;;;8.27;4.32;;;;;;;;;;5025919;28;20414;-66
2022/03/14 15:05:33;;;;;;;10.25;5.65;;;;;;;;;;5031161;28;20096;-66
2022/03/14 15:07:59;;;;;;;9.68;4.97;;;;;;;;;;5037965;28;20029;-66
2022/03/14 15:10:26;;;;;;;11.65;5.35;;;;;;;;;;5029971;28;20037;-66
2022/03/14 15:12:53;;;;;;;8.93;4.05;;;;;;;;;;5039232;28;20079;-64
2022/03/14 15:15:19;;;;;;;8.15;3.72;;;;;;;;;;4999523;28;20124;-65
2022/03/14 15:17:48;;;;;;;8.75;4.05;;;;;;;;;;4997215;28;20087;-65
2022/03/14 15:20:15;;;;;;;7.13;4.32;;;;;;;;;;5019489;28;20068;-65
2022/03/14 15:22:42;;;;;;;10.13;4.68;;;;;;;;;;5035593;28;20040;-65
2022/03/14 15:25:09;;;;;;;7.70;4.00;;;;;;;;;;5034688;28;20120;-65
2022/03/14 15:27:36;;;;;;;9.50;4.45;;;;;;;;;;5027574;28;20039;-65